createdAt,value
2022-09-01T00:00:03.296Z,98743.00
2022-09-01T00:02:37.260Z,98749.00
2022-09-01T00:05:05.178Z,98753.00
2022-09-01T00:07:39.196Z,98757.00
2022-09-01T00:10:14.174Z,98751.00
2022-09-01T00:12:41.075Z,98748.00
2022-09-01T00:15:09.587Z,98752.00
2022-09-01T00:17:43.130Z,98750.00
2022-09-01T00:20:20.430Z,98737.00
2022-09-01T00:22:48.083Z,98741.00
2022-09-01T00:25:15.067Z,98742.00
2022-09-01T00:27:48.196Z,98739.00
2022-09-01T00:30:15.150Z,98730.00
2022-09-01T00:32:48.139Z,98734.00
2022-09-01T00:35:23.166Z,98738.00
2022-09-01T00:37:50.109Z,98744.00
2022-09-01T00:40:24.177Z,98754.00
2022-09-01T00:42:58.163Z,98751.00
2022-09-01T00:45:25.379Z,98747.00
2022-09-01T00:47:52.367Z,98734.00
2022-09-01T00:50:27.235Z,98747.00
2022-09-01T00:52:54.192Z,98748.00
2022-09-01T00:55:38.183Z,98749.00
2022-09-01T00:58:06.622Z,98763.00
2022-09-01T01:00:54.251Z,98763.00
2022-09-01T01:03:21.345Z,98762.00
2022-09-01T01:05:58.183Z,98762.00
2022-09-01T01:08:30.713Z,98756.00
2022-09-01T01:11:04.197Z,98756.00
2022-09-01T01:13:31.120Z,98759.00
2022-09-01T01:16:05.155Z,98767.00
2022-09-01T01:18:32.179Z,98762.00
2022-09-01T01:21:12.159Z,98761.00
2022-09-01T01:24:28.212Z,98770.00
2022-09-01T01:27:02.189Z,98771.00
2022-09-01T01:29:40.182Z,98772.00
2022-09-01T01:32:07.193Z,98772.00
2022-09-01T01:34:40.178Z,98778.00
2022-09-01T01:37:07.142Z,98782.00
2022-09-01T01:39:40.230Z,98769.00
2022-09-01T01:42:07.345Z,98774.00
2022-09-01T01:44:41.200Z,98772.00
2022-09-01T01:47:10.839Z,98787.00
2022-09-01T01:49:37.819Z,98781.00
2022-09-01T01:52:11.184Z,98780.00
2022-09-01T01:54:38.144Z,98782.00
2022-09-01T01:57:12.211Z,98788.00
2022-09-01T01:59:39.168Z,98791.00
2022-09-01T02:02:12.241Z,98796.00
2022-09-01T02:04:39.631Z,98793.00
2022-09-01T02:07:11.129Z,98791.00
2022-09-01T02:09:44.232Z,98800.00
2022-09-01T02:12:17.217Z,98797.00
2022-09-01T02:14:44.162Z,98802.00
2022-09-01T02:17:17.227Z,98797.00
2022-09-01T02:19:44.186Z,98797.00
2022-09-01T02:22:24.244Z,98804.00
2022-09-01T02:24:51.142Z,98815.00
2022-09-01T02:27:25.249Z,98817.00
2022-09-01T02:29:52.517Z,98808.00
2022-09-01T02:32:26.234Z,98807.00
2022-09-01T02:34:53.185Z,98806.00
2022-09-01T02:37:28.267Z,98799.00
2022-09-01T02:39:55.289Z,98803.00
2022-09-01T02:42:22.301Z,98806.00
2022-09-01T02:44:55.257Z,98804.00
2022-09-01T02:47:29.664Z,98803.00
2022-09-01T02:49:56.872Z,98788.00
2022-09-01T02:52:30.257Z,98794.00
2022-09-01T02:54:57.199Z,98796.00
2022-09-01T02:57:30.259Z,98809.00
2022-09-01T02:59:57.159Z,98799.00
2022-09-01T03:02:30.231Z,98801.00
2022-09-01T03:04:57.247Z,98787.00
2022-09-01T03:07:24.327Z,98795.00
2022-09-01T03:09:58.282Z,98793.00
2022-09-01T03:12:25.226Z,98798.00
2022-09-01T03:14:52.185Z,98793.00
2022-09-01T03:17:25.294Z,98800.00
2022-09-01T03:19:52.245Z,98786.00
2022-09-01T03:22:19.189Z,98784.00
2022-09-01T03:24:52.261Z,98781.00
2022-09-01T03:27:31.676Z,98763.00
2022-09-01T03:30:09.880Z,98774.00
2022-09-01T03:32:36.799Z,98780.00
2022-09-01T03:35:10.286Z,98776.00
2022-09-01T03:37:44.311Z,98779.00
2022-09-01T03:40:12.587Z,98773.00
2022-09-01T03:42:40.337Z,98782.00
2022-09-01T03:45:14.439Z,98771.00
2022-09-01T03:47:42.509Z,98774.00
2022-09-01T03:50:26.399Z,98761.00
2022-09-01T03:52:56.777Z,98772.00
2022-09-01T03:55:33.284Z,98772.00
2022-09-01T03:58:06.681Z,98769.00
2022-09-01T04:00:50.314Z,98757.00
2022-09-01T04:03:17.745Z,98757.00
2022-09-01T04:05:51.294Z,98756.00
2022-09-01T04:08:25.272Z,98752.00
2022-09-01T04:10:54.354Z,98752.00
2022-09-01T04:13:33.279Z,98758.00
2022-09-01T04:16:00.218Z,98752.00
2022-09-01T04:18:27.319Z,98760.00
2022-09-01T04:21:05.329Z,98764.00
2022-09-01T04:23:34.231Z,98752.00
2022-09-01T04:26:10.288Z,98752.00
2022-09-01T04:28:40.225Z,98760.00
2022-09-01T04:31:16.378Z,98759.00
2022-09-01T04:33:43.424Z,98760.00
2022-09-01T04:36:30.362Z,98751.00
2022-09-01T04:38:59.633Z,98752.00
2022-09-01T04:41:38.374Z,98756.00
2022-09-01T04:44:06.149Z,98760.00
2022-09-01T04:46:37.394Z,98755.00
2022-09-01T04:49:13.249Z,98747.00
2022-09-01T04:51:48.034Z,98758.00
2022-09-01T04:54:24.307Z,98750.00
2022-09-01T04:56:51.737Z,98755.00
2022-09-01T04:59:28.324Z,98757.00
2022-09-01T05:01:55.286Z,98753.00
2022-09-01T05:04:31.335Z,98761.00
2022-09-01T05:06:58.505Z,98756.00
2022-09-01T05:09:25.557Z,98760.00
2022-09-01T05:11:59.322Z,98761.00
2022-09-01T05:14:26.294Z,98759.00
2022-09-01T05:17:04.354Z,98749.00
2022-09-01T05:19:31.306Z,98755.00
2022-09-01T05:22:04.384Z,98761.00
2022-09-01T05:24:31.370Z,98750.00
2022-09-01T05:26:58.839Z,98752.00
2022-09-01T05:29:32.327Z,98758.00
2022-09-01T05:31:59.272Z,98751.00
2022-09-01T05:34:33.389Z,98769.00
2022-09-01T05:37:00.347Z,98769.00
2022-09-01T05:39:34.359Z,98771.00
2022-09-01T05:42:01.357Z,98766.00
2022-09-01T05:44:34.380Z,98767.00
2022-09-01T05:47:01.485Z,98765.00
2022-09-01T05:49:35.373Z,98773.00
2022-09-01T05:52:02.596Z,98767.00
2022-09-01T05:54:37.394Z,98778.00
2022-09-01T05:57:30.511Z,98769.00
2022-09-01T05:59:58.414Z,98770.00
2022-09-01T06:02:32.452Z,98784.00
2022-09-01T06:04:59.455Z,98778.00
2022-09-01T06:07:33.392Z,98781.00
2022-09-01T06:10:07.387Z,98778.00
2022-09-01T06:12:34.484Z,98779.00
2022-09-01T06:15:01.420Z,98777.00
2022-09-01T06:17:36.732Z,98794.00
2022-09-01T06:20:04.400Z,98798.00
2022-09-01T06:22:38.464Z,98787.00
2022-09-01T06:25:06.412Z,98784.00
2022-09-01T06:27:34.274Z,98769.00
2022-09-01T06:30:07.351Z,98753.00
2022-09-01T06:32:34.274Z,98770.00
2022-09-01T06:35:07.537Z,98771.00
2022-09-01T06:37:34.463Z,98770.00
2022-09-01T06:40:08.431Z,98807.00
2022-09-01T06:42:42.406Z,98801.00
2022-09-01T06:45:10.202Z,98791.00
2022-09-01T06:47:43.405Z,98779.00
2022-09-01T06:51:14.649Z,98799.00
2022-09-01T06:56:01.414Z,98778.00
2022-09-01T06:58:28.400Z,98768.00
2022-09-01T07:00:55.405Z,98771.00
2022-09-01T07:03:28.410Z,98788.00
2022-09-01T07:06:00.871Z,98803.00
2022-09-01T07:09:18.975Z,98814.00
2022-09-01T07:14:19.440Z,98810.00
2022-09-01T07:17:22.362Z,98814.00
2022-09-01T07:19:54.645Z,98815.00
2022-09-01T07:22:36.203Z,98823.00
2022-09-01T07:27:57.735Z,98803.00
2022-09-01T07:30:27.588Z,98800.00
2022-09-01T07:32:54.517Z,98810.00
2022-09-01T07:35:28.440Z,98809.00
2022-09-01T07:42:55.516Z,98818.00
2022-09-01T07:43:42.453Z,98810.00
2022-09-01T07:49:29.477Z,98807.00
2022-09-01T07:51:50.388Z,98806.00
2022-09-01T07:54:24.460Z,98818.00
2022-09-01T07:56:51.433Z,98816.00
2022-09-01T07:59:24.481Z,98804.00
2022-09-01T08:01:51.509Z,98803.00
2022-09-01T08:04:18.499Z,98811.00
2022-09-01T08:06:51.440Z,98805.00
2022-09-01T08:09:25.261Z,98808.00
2022-09-01T08:12:12.487Z,98805.00
2022-09-01T08:14:39.461Z,98810.00
2022-09-01T08:20:00.508Z,98806.00
2022-09-01T08:22:40.879Z,98804.00
2022-09-01T08:25:15.472Z,98808.00
2022-09-01T08:27:42.583Z,98810.00
2022-09-01T08:30:18.530Z,98818.00
2022-09-01T08:32:45.483Z,98815.00
2022-09-01T08:35:19.482Z,98810.00
2022-09-01T08:37:46.404Z,98812.00
2022-09-01T08:40:16.210Z,98818.00
2022-09-01T08:43:05.479Z,98820.00
2022-09-01T08:45:45.410Z,98816.00
2022-09-01T08:49:23.212Z,98817.00
2022-09-01T08:51:28.542Z,98803.00
2022-09-01T08:54:29.483Z,98820.00
2022-09-01T08:57:16.513Z,98818.00
2022-09-01T08:59:43.461Z,98806.00
2022-09-01T09:02:57.089Z,98812.00
2022-09-01T09:06:02.703Z,98826.00
2022-09-01T09:09:07.533Z,98833.00
2022-09-01T09:11:58.327Z,98815.00
2022-09-01T09:14:47.536Z,98818.00
2022-09-01T09:17:22.544Z,98811.00
2022-09-01T09:19:55.515Z,98824.00
2022-09-01T09:22:28.612Z,98826.00
2022-09-01T09:25:11.433Z,98817.00
2022-09-01T09:28:00.608Z,98826.00
2022-09-01T09:30:29.362Z,98824.00
2022-09-01T09:36:41.532Z,98823.00
2022-09-01T09:39:21.544Z,98824.00
2022-09-01T09:42:10.873Z,98818.00
2022-09-01T09:44:53.535Z,98808.00
2022-09-01T09:47:44.667Z,98802.00
2022-09-01T09:50:34.568Z,98811.00
2022-09-01T09:53:17.693Z,98809.00
2022-09-01T09:56:22.543Z,98810.00
2022-09-01T09:58:49.676Z,98808.00
2022-09-01T10:01:26.594Z,98803.00
2022-09-01T10:03:58.666Z,98813.00
2022-09-01T10:06:38.565Z,98814.00
2022-09-01T10:09:30.258Z,98812.00
2022-09-01T10:12:04.543Z,98806.00
2022-09-01T10:14:52.542Z,98778.00
2022-09-01T10:17:38.028Z,98800.00
2022-09-01T10:20:26.607Z,98801.00
2022-09-01T10:22:53.546Z,98787.00
2022-09-01T10:25:33.570Z,98799.00
2022-09-01T10:28:23.391Z,98795.00
2022-09-01T10:30:52.372Z,98787.00
2022-09-01T10:33:27.600Z,98779.00
2022-09-01T10:35:54.558Z,98782.00
2022-09-01T10:38:31.650Z,98771.00
2022-09-01T10:41:05.837Z,98774.00
2022-09-01T10:43:48.997Z,98768.00
2022-09-01T10:46:38.781Z,98768.00
2022-09-01T10:49:28.088Z,98768.00
2022-09-01T10:52:08.526Z,98760.00
2022-09-01T10:54:50.790Z,98769.00
2022-09-01T10:57:46.595Z,98769.00
2022-09-01T11:00:37.879Z,98770.00
2022-09-01T11:06:13.330Z,98767.00
2022-09-01T11:09:01.655Z,98772.00
2022-09-01T11:11:49.430Z,98772.00
2022-09-01T11:14:30.599Z,98775.00
2022-09-01T11:17:28.057Z,98770.00
2022-09-01T11:20:11.626Z,98775.00
2022-09-01T11:22:46.410Z,98784.00
2022-09-01T11:25:40.751Z,98772.00
2022-09-01T11:28:34.608Z,98772.00
2022-09-01T11:31:15.694Z,98769.00
2022-09-01T11:34:17.628Z,98779.00
2022-09-01T11:36:44.885Z,98768.00
2022-09-01T11:39:26.644Z,98761.00
2022-09-01T11:42:31.646Z,98762.00
2022-09-01T11:45:23.230Z,98756.00
2022-09-01T11:47:59.651Z,98760.00
2022-09-01T11:50:41.626Z,98752.00
2022-09-01T11:53:16.095Z,98754.00
2022-09-01T11:55:51.659Z,98752.00
2022-09-01T11:58:27.567Z,98744.00
2022-09-01T12:01:02.658Z,98743.00
2022-09-01T12:03:30.380Z,98748.00
2022-09-01T12:06:09.663Z,98737.00
2022-09-01T12:08:48.630Z,98739.00
2022-09-01T12:11:33.697Z,98739.00
2022-09-01T12:14:07.668Z,98735.00
2022-09-01T12:16:45.654Z,98718.00
2022-09-01T12:19:31.677Z,98732.00
2022-09-01T12:22:06.926Z,98737.00
2022-09-01T12:24:43.720Z,98742.00
2022-09-01T12:27:10.621Z,98736.00
2022-09-01T12:29:44.665Z,98743.00
2022-09-01T12:32:11.749Z,98742.00
2022-09-01T12:34:46.683Z,98762.00
2022-09-01T12:37:16.592Z,98748.00
2022-09-01T12:39:54.693Z,98739.00
2022-09-01T12:42:21.544Z,98732.00
2022-09-01T12:45:12.688Z,98729.00
2022-09-01T12:47:45.705Z,98727.00
2022-09-01T12:50:16.499Z,98726.00
2022-09-01T12:52:56.720Z,98723.00
2022-09-01T12:58:29.705Z,98727.00
2022-09-01T13:00:59.299Z,98725.00
2022-09-01T13:03:26.379Z,98721.00
2022-09-01T13:06:08.022Z,98731.00
2022-09-01T13:08:42.706Z,98732.00
2022-09-01T13:11:20.201Z,98722.00
2022-09-01T13:13:53.682Z,98718.00
2022-09-01T13:16:20.657Z,98720.00
2022-09-01T13:24:14.760Z,98718.00
2022-09-01T13:26:41.749Z,98715.00
2022-09-01T13:29:08.687Z,98703.00
2022-09-01T13:32:16.645Z,98703.00
2022-09-01T13:34:28.675Z,98696.00
2022-09-01T13:37:01.743Z,98706.00
2022-09-01T13:39:34.711Z,98700.00
2022-09-01T13:42:01.683Z,98693.00
2022-09-01T13:44:35.493Z,98701.00
2022-09-01T13:50:12.288Z,98696.00
2022-09-01T13:52:41.948Z,98694.00
2022-09-01T13:55:17.775Z,98694.00
2022-09-01T13:57:44.696Z,98688.00
2022-09-01T14:00:22.764Z,98684.00
2022-09-01T14:02:51.499Z,98685.00
2022-09-01T14:05:55.803Z,98687.00
2022-09-01T14:08:23.067Z,98684.00
2022-09-01T14:10:51.798Z,98677.00
2022-09-01T14:13:27.758Z,98680.00
2022-09-01T14:15:54.976Z,98678.00
2022-09-01T14:18:28.755Z,98674.00
2022-09-01T14:20:55.674Z,98667.00
2022-09-01T14:23:36.757Z,98665.00
2022-09-01T14:26:14.811Z,98672.00
2022-09-01T14:28:48.494Z,98661.00
2022-09-01T14:31:24.785Z,98667.00
2022-09-01T14:33:57.807Z,98665.00
2022-09-01T14:36:26.015Z,98661.00
2022-09-01T14:38:59.799Z,98659.00
2022-09-01T14:41:27.107Z,98655.00
2022-09-01T14:44:03.195Z,98666.00
2022-09-01T14:46:31.318Z,98668.00
2022-09-01T14:49:04.786Z,98662.00
2022-09-01T14:54:24.913Z,98668.00
2022-09-01T14:59:45.708Z,98670.00
2022-09-01T15:02:18.806Z,98668.00
2022-09-01T15:04:45.718Z,98658.00
2022-09-01T15:07:12.787Z,98657.00
2022-09-01T15:09:45.835Z,98660.00
2022-09-01T15:12:12.827Z,98664.00
2022-09-01T15:14:49.026Z,98661.00
2022-09-01T15:17:22.868Z,98664.00
2022-09-01T15:19:49.800Z,98666.00
2022-09-01T15:22:22.822Z,98668.00
2022-09-01T15:24:49.744Z,98657.00
2022-09-01T15:27:22.822Z,98665.00
2022-09-01T15:29:55.795Z,98653.00
2022-09-01T15:32:28.111Z,98660.00
2022-09-01T15:35:02.857Z,98646.00
2022-09-01T15:37:29.827Z,98655.00
2022-09-01T15:40:02.820Z,98655.00
2022-09-01T15:42:29.793Z,98644.00
2022-09-01T15:45:02.869Z,98645.00
2022-09-01T15:47:30.542Z,98659.00
2022-09-01T15:49:57.593Z,98661.00
2022-09-01T15:52:32.883Z,98675.00
2022-09-01T15:54:59.980Z,98664.00
2022-09-01T15:57:33.862Z,98673.00
2022-09-01T16:00:00.855Z,98665.00
2022-09-01T16:02:28.013Z,98672.00
2022-09-01T16:05:01.895Z,98670.00
2022-09-01T16:07:28.808Z,98664.00
2022-09-01T16:10:01.880Z,98655.00
2022-09-01T16:12:28.900Z,98668.00
2022-09-01T16:15:02.895Z,98661.00
2022-09-01T16:17:56.835Z,98670.00
2022-09-01T16:20:55.285Z,98681.00
2022-09-01T16:23:49.888Z,98681.00
2022-09-01T16:26:18.388Z,98675.00
2022-09-01T16:29:00.882Z,98686.00
2022-09-01T16:31:30.833Z,98675.00
2022-09-01T16:34:06.922Z,98681.00
2022-09-01T16:36:54.867Z,98683.00
2022-09-01T16:39:45.941Z,98674.00
2022-09-01T16:42:20.983Z,98681.00
2022-09-01T16:45:12.965Z,98691.00
2022-09-01T16:48:15.900Z,98690.00
2022-09-01T16:51:01.264Z,98677.00
2022-09-01T16:53:52.912Z,98678.00
2022-09-01T16:56:30.540Z,98688.00
2022-09-01T16:59:27.911Z,98690.00
2022-09-01T17:02:53.903Z,98701.00
2022-09-01T17:05:38.939Z,98705.00
2022-09-01T17:08:31.282Z,98704.00
2022-09-01T17:11:25.962Z,98699.00
2022-09-01T17:13:53.098Z,98696.00
2022-09-01T17:16:34.952Z,98704.00
2022-09-01T17:19:07.636Z,98707.00
2022-09-01T17:21:48.980Z,98712.00
2022-09-01T17:24:36.167Z,98727.00
2022-09-01T17:27:28.122Z,98726.00
2022-09-01T17:29:56.354Z,98730.00
2022-09-01T17:33:05.979Z,98730.00
2022-09-01T17:36:07.460Z,98730.00
2022-09-01T17:39:10.012Z,98722.00
2022-09-01T17:42:04.976Z,98716.00
2022-09-01T17:45:06.005Z,98722.00
2022-09-01T17:48:17.059Z,98728.00
2022-09-01T17:51:05.190Z,98730.00
2022-09-01T17:54:15.931Z,98734.00
2022-09-01T17:57:00.701Z,98742.00
2022-09-01T18:00:11.945Z,98729.00
2022-09-01T18:02:59.975Z,98735.00
2022-09-01T18:05:33.992Z,98732.00
2022-09-01T18:08:37.998Z,98725.00
2022-09-01T18:11:18.339Z,98735.00
2022-09-01T18:13:57.089Z,98734.00
2022-09-01T18:16:39.489Z,98728.00
2022-09-01T18:19:21.935Z,98724.00
2022-09-01T18:21:56.402Z,98734.00
2022-09-01T18:24:38.947Z,98740.00
2022-09-01T18:27:05.950Z,98732.00
2022-09-01T18:29:32.893Z,98738.00
2022-09-01T18:32:10.175Z,98732.00
2022-09-01T18:34:54.023Z,98719.00
2022-09-01T18:37:48.913Z,98743.00
2022-09-01T18:41:04.089Z,98760.00
2022-09-01T18:43:40.556Z,98763.00
2022-09-01T18:46:37.052Z,98778.00
2022-09-01T18:50:14.007Z,98794.00
2022-09-01T18:53:07.015Z,98808.00
2022-09-01T18:56:02.448Z,98800.00
2022-09-01T18:59:36.687Z,98827.00
2022-09-01T19:02:35.803Z,98835.00
2022-09-01T19:05:38.028Z,98842.00
2022-09-01T19:08:26.539Z,98849.00
2022-09-01T19:11:54.061Z,98850.00
2022-09-01T19:14:45.614Z,98840.00
2022-09-01T19:18:03.002Z,98835.00
2022-09-01T19:20:45.912Z,98836.00
2022-09-01T19:23:51.033Z,98844.00
2022-09-01T19:26:30.006Z,98856.00
2022-09-01T19:29:43.090Z,98853.00
2022-09-01T19:32:10.924Z,98834.00
2022-09-01T19:34:50.988Z,98842.00
2022-09-01T19:37:18.044Z,98856.00
2022-09-01T19:39:54.462Z,98854.00
2022-09-01T19:42:36.555Z,98858.00
2022-09-01T19:45:50.119Z,98877.00
2022-09-01T19:48:35.477Z,98892.00
2022-09-01T19:51:34.023Z,98880.00
2022-09-01T19:54:27.090Z,98889.00
2022-09-01T19:57:18.985Z,98893.00
2022-09-01T20:00:23.107Z,98887.00
2022-09-01T20:03:07.800Z,98880.00
2022-09-01T20:05:42.047Z,98896.00
2022-09-01T20:08:14.617Z,98889.00
2022-09-01T20:11:08.131Z,98897.00
2022-09-01T20:14:17.997Z,98909.00
2022-09-01T20:16:57.035Z,98908.00
2022-09-01T20:19:56.113Z,98916.00
2022-09-01T20:22:58.951Z,98921.00
2022-09-01T20:25:39.116Z,98921.00
2022-09-01T20:28:25.113Z,98940.00
2022-09-01T20:31:10.086Z,98944.00
2022-09-01T20:33:52.054Z,98954.00
2022-09-01T20:36:57.109Z,98959.00
2022-09-01T20:40:09.995Z,98965.00
2022-09-01T20:43:23.197Z,98968.00
2022-09-01T20:45:50.337Z,98969.00
2022-09-01T20:48:32.164Z,98969.00
2022-09-01T20:51:27.596Z,98967.00
2022-09-01T20:54:37.114Z,98974.00
2022-09-01T20:57:31.012Z,98980.00
2022-09-01T21:00:26.155Z,98980.00
2022-09-01T21:03:20.739Z,98971.00
2022-09-01T21:06:05.147Z,98961.00
2022-09-01T21:08:53.267Z,98973.00
2022-09-01T21:11:44.138Z,98974.00
2022-09-01T21:14:31.733Z,98987.00
2022-09-01T21:17:26.107Z,98987.00
2022-09-01T21:20:31.127Z,98988.00
2022-09-01T21:23:06.758Z,98985.00
2022-09-01T21:25:34.148Z,98998.00
2022-09-01T21:28:02.665Z,98998.00
2022-09-01T21:30:40.285Z,98978.00
2022-09-01T21:33:07.350Z,98995.00
2022-09-01T21:35:41.152Z,99012.00
2022-09-01T21:38:08.997Z,98993.00
2022-09-01T21:40:42.205Z,98991.00
2022-09-01T21:43:31.125Z,98996.00
2022-09-01T21:45:58.087Z,99016.00
2022-09-01T21:48:31.324Z,99021.00
2022-09-01T21:50:58.408Z,99012.00
2022-09-01T21:53:25.432Z,99000.00
2022-09-01T21:55:59.182Z,99017.00
2022-09-01T21:58:32.267Z,99020.00
2022-09-01T22:01:06.251Z,99017.00
2022-09-01T22:03:34.387Z,99017.00
2022-09-01T22:06:08.187Z,99005.00
2022-09-01T22:08:35.208Z,99014.00
2022-09-01T22:11:09.165Z,99015.00
2022-09-01T22:13:43.183Z,99014.00
2022-09-01T22:16:10.300Z,98999.00
2022-09-01T22:18:44.161Z,99017.00
2022-09-01T22:21:18.160Z,99023.00
2022-09-01T22:23:45.607Z,99031.00
2022-09-01T22:26:27.167Z,99038.00
2022-09-01T22:29:05.134Z,99036.00
2022-09-01T22:31:33.197Z,99037.00
2022-09-01T22:34:07.185Z,99050.00
2022-09-01T22:36:47.142Z,99040.00
2022-09-01T22:39:22.375Z,99033.00
2022-09-01T22:41:52.516Z,99037.00
2022-09-01T22:44:26.152Z,99024.00
2022-09-01T22:46:59.175Z,99032.00
2022-09-01T22:49:32.224Z,99043.00
2022-09-01T22:52:07.197Z,99048.00
2022-09-01T22:54:34.854Z,99051.00
2022-09-01T22:57:09.272Z,99051.00
2022-09-01T22:59:43.199Z,99051.00
2022-09-01T23:02:10.343Z,99062.00
2022-09-01T23:04:38.365Z,99058.00
2022-09-01T23:07:12.163Z,99053.00
2022-09-01T23:09:39.345Z,99054.00
2022-09-01T23:12:13.631Z,99044.00
2022-09-01T23:14:41.958Z,99061.00
2022-09-01T23:17:15.140Z,99047.00
2022-09-01T23:19:42.055Z,99053.00
2022-09-01T23:22:09.142Z,99057.00
2022-09-01T23:24:42.192Z,99059.00
2022-09-01T23:27:09.235Z,99055.00
2022-09-01T23:29:37.280Z,99049.00
2022-09-01T23:32:11.221Z,99060.00
2022-09-01T23:34:38.862Z,99061.00
2022-09-01T23:37:05.820Z,99073.00
2022-09-01T23:39:39.146Z,99059.00
2022-09-01T23:42:06.150Z,99074.00
2022-09-01T23:44:33.177Z,99075.00
2022-09-01T23:47:06.245Z,99069.00
2022-09-01T23:49:37.080Z,99068.00
2022-09-01T23:52:04.066Z,99066.00
2022-09-01T23:54:37.217Z,99057.00
2022-09-01T23:57:04.291Z,99061.00
2022-09-01T23:59:38.280Z,99059.00
